Time;durP1;ratioP1;P1;durP2;ratioP2;P2;SDS_P1;SDS_P2;PMS_P1;PMS_P2;Temp;Humidity;BMP_temperature;BMP_pressure;BME280_temperature;BME280_humidity;BME280_pressure;Samples;Min_cycle;Max_cycle;Signal;HPM_P1;HPM_P2
2022/03/02 00:01:38;;;;;;;41.00;32.85;;;5.00;99.90;;;;;;5074181;28;20506;-55
2022/03/02 00:04:05;;;;;;;41.05;30.67;;;5.00;99.90;;;;;;5079773;28;20055;-55
2022/03/02 00:06:31;;;;;;;41.28;32.83;;;5.00;99.90;;;;;;5077473;28;20106;-56
2022/03/02 00:08:57;;;;;;;40.55;32.03;;;5.00;99.90;;;;;;5068860;28;20086;-55
2022/03/02 00:11:23;;;;;;;44.05;32.45;;;5.00;99.90;;;;;;5081241;28;20155;-55
2022/03/02 00:13:49;;;;;;;44.58;33.13;;;5.00;99.90;;;;;;5078995;28;20098;-55
2022/03/02 00:16:16;;;;;;;41.60;32.92;;;5.00;99.90;;;;;;5069559;28;20127;-55
2022/03/02 00:18:43;;;;;;;45.60;33.17;;;5.00;99.90;;;;;;5075696;28;20052;-55
2022/03/02 00:21:09;;;;;;;39.60;31.20;;;5.00;99.90;;;;;;5070229;28;20510;-55
2022/03/02 00:23:34;;;;;;;43.40;33.33;;;5.10;99.90;;;;;;5081148;28;20048;-55
2022/03/02 00:26:00;;;;;;;39.45;31.48;;;5.00;99.90;;;;;;5080671;28;20069;-55
2022/03/02 00:28:26;;;;;;;41.03;31.73;;;5.00;99.90;;;;;;5074405;28;20052;-56
2022/03/02 00:30:52;;;;;;;42.40;34.33;;;5.10;99.90;;;;;;5076496;28;20051;-56
2022/03/02 00:33:17;;;;;;;40.30;32.13;;;5.00;99.90;;;;;;5074233;28;20051;-56
2022/03/02 00:35:43;;;;;;;41.80;32.63;;;5.00;99.90;;;;;;5075857;28;20582;-54
2022/03/02 00:38:10;;;;;;;50.10;34.58;;;5.00;99.90;;;;;;5077541;28;20103;-51
2022/03/02 00:40:41;;;;;;;42.20;32.83;;;5.00;99.90;;;;;;5065539;28;20087;-55
2022/03/02 00:43:08;;;;;;;41.65;32.28;;;5.00;99.90;;;;;;5065707;28;20508;-55
2022/03/02 00:45:34;;;;;;;39.20;31.80;;;5.00;99.90;;;;;;5079444;28;20449;-54
2022/03/02 00:48:02;;;;;;;43.38;33.40;;;5.00;99.90;;;;;;5071600;28;20078;-54
2022/03/02 00:50:29;;;;;;;41.50;31.30;;;5.00;99.90;;;;;;5049755;28;20048;-55
2022/03/02 00:52:57;;;;;;;41.60;31.42;;;5.00;99.90;;;;;;5072384;28;20048;-55
2022/03/02 00:55:23;;;;;;;42.10;32.35;;;5.00;99.90;;;;;;5075928;28;20059;-56
2022/03/02 00:57:49;;;;;;;41.25;34.38;;;4.90;99.90;;;;;;5064778;28;20048;-57
2022/03/02 01:00:16;;;;;;;42.88;33.15;;;5.00;99.90;;;;;;5067845;28;20121;-48
2022/03/02 01:02:42;;;;;;;43.55;32.33;;;5.00;99.90;;;;;;5071701;28;20048;-57
2022/03/02 01:05:08;;;;;;;44.60;33.63;;;4.90;99.90;;;;;;5052322;28;20055;-57
2022/03/02 01:07:34;;;;;;;44.00;33.38;;;4.90;99.90;;;;;;5072089;28;20048;-55
2022/03/02 01:10:01;;;;;;;43.38;33.17;;;4.80;99.90;;;;;;5067473;28;20086;-55
2022/03/02 01:12:27;;;;;;;43.63;31.83;;;4.80;99.90;;;;;;5063133;28;20037;-56
2022/03/02 01:14:53;;;;;;;45.67;35.40;;;4.80;99.90;;;;;;5077702;28;20144;-54
2022/03/02 01:17:20;;;;;;;41.92;33.10;;;4.70;99.90;;;;;;5073283;28;20048;-55
2022/03/02 01:19:48;;;;;;;48.60;34.28;;;4.60;99.90;;;;;;5067956;28;20053;-54
2022/03/02 01:22:14;;;;;;;45.47;35.58;;;4.50;99.90;;;;;;5063441;28;20068;-53
2022/03/02 01:24:41;;;;;;;46.67;34.60;;;4.50;99.90;;;;;;5063305;28;20053;-53
2022/03/02 01:27:07;;;;;;;45.33;35.33;;;4.50;99.90;;;;;;5066207;28;20127;-54
2022/03/02 01:29:34;;;;;;;47.65;33.88;;;4.40;99.90;;;;;;5071959;28;20126;-55
2022/03/02 01:32:03;;;;;;;43.72;34.45;;;4.40;99.90;;;;;;5068307;28;20052;-54
2022/03/02 01:34:29;;;;;;;46.38;34.83;;;4.40;99.90;;;;;;5068365;28;20044;-55
2022/03/02 01:36:54;;;;;;;48.25;36.00;;;4.40;99.90;;;;;;5066723;28;20356;-55
2022/03/02 01:39:20;;;;;;;42.17;32.90;;;4.30;99.90;;;;;;5075777;28;20101;-55
2022/03/02 01:41:46;;;;;;;47.33;35.63;;;4.30;99.90;;;;;;5065391;28;20052;-55
2022/03/02 01:44:12;;;;;;;43.00;34.30;;;4.30;99.90;;;;;;5071825;28;20074;-54
2022/03/02 01:46:38;;;;;;;50.88;37.47;;;4.30;99.90;;;;;;5068904;28;20055;-54
2022/03/02 01:49:04;;;;;;;48.10;36.38;;;4.30;99.90;;;;;;5067586;28;20511;-55
2022/03/02 01:51:30;;;;;;;47.85;35.47;;;4.30;99.90;;;;;;5073530;28;20052;-55
2022/03/02 01:53:56;;;;;;;48.05;37.25;;;4.30;99.90;;;;;;5068001;28;20085;-54
2022/03/02 01:56:22;;;;;;;50.60;36.50;;;4.30;99.90;;;;;;5064062;28;20053;-55
2022/03/02 01:58:48;;;;;;;51.92;37.10;;;4.20;99.90;;;;;;5067121;28;20142;-55
2022/03/02 02:01:15;;;;;;;45.83;35.67;;;4.30;99.90;;;;;;5063937;28;20064;-52
2022/03/02 02:03:41;;;;;;;48.13;37.58;;;4.30;99.90;;;;;;5077530;28;20417;-54
2022/03/02 02:06:08;;;;;;;49.60;37.40;;;4.30;99.90;;;;;;5068701;28;20277;-55
2022/03/02 02:08:34;;;;;;;51.35;37.72;;;4.30;99.90;;;;;;5062854;28;20068;-55
2022/03/02 02:11:01;;;;;;;45.80;35.50;;;4.30;99.90;;;;;;5077755;28;20051;-55
2022/03/02 02:13:30;;;;;;;48.10;35.53;;;4.30;99.90;;;;;;5073539;28;20410;-54
2022/03/02 02:15:56;;;;;;;50.95;36.33;;;4.40;99.90;;;;;;5067319;28;20064;-49
2022/03/02 02:18:22;;;;;;;48.35;34.55;;;4.30;99.90;;;;;;5073219;28;20047;-54
2022/03/02 02:20:48;;;;;;;48.63;34.95;;;4.40;99.90;;;;;;5070400;28;20856;-55
2022/03/02 02:23:14;;;;;;;43.35;34.50;;;4.40;99.90;;;;;;5080663;28;20157;-55
2022/03/02 02:25:40;;;;;;;46.20;34.33;;;4.40;99.90;;;;;;5074636;28;20832;-49
2022/03/02 02:28:12;;;;;;;42.00;33.33;;;4.40;99.90;;;;;;5073137;28;20060;-59
2022/03/02 02:30:39;;;;;;;45.08;34.65;;;4.50;99.90;;;;;;5068958;28;20056;-54
2022/03/02 02:33:06;;;;;;;45.58;33.22;;;4.50;99.90;;;;;;5072559;28;20055;-55
2022/03/02 02:35:33;;;;;;;44.20;33.17;;;4.50;99.90;;;;;;5058133;28;20064;-55
2022/03/02 02:37:59;;;;;;;46.90;34.20;;;4.50;99.90;;;;;;5067052;28;20592;-55
2022/03/02 02:40:28;;;;;;;50.88;34.22;;;4.60;99.90;;;;;;5064505;28;20663;-55
2022/03/02 02:42:54;;;;;;;42.45;32.90;;;4.60;99.90;;;;;;5072492;28;20087;-55
2022/03/02 02:45:22;;;;;;;47.28;34.35;;;4.60;99.90;;;;;;5063736;28;20058;-55
2022/03/02 02:47:56;;;;;;;44.67;33.63;;;4.60;99.90;;;;;;5070879;28;20566;-55
2022/03/02 02:50:27;;;;;;;;;;;4.60;99.90;;;;;;5066866;28;20582;-55
2022/03/02 02:52:54;;;;;;;47.55;33.13;;;4.60;99.90;;;;;;5070271;28;19931;-55
2022/03/02 02:55:22;;;;;;;48.35;33.78;;;4.60;99.90;;;;;;5068271;28;20559;-55
2022/03/02 02:57:48;;;;;;;48.20;34.50;;;4.50;99.90;;;;;;5068396;28;20666;-54
2022/03/02 03:00:18;;;;;;;43.63;33.15;;;4.50;99.90;;;;;;5075299;28;20182;-54
2022/03/02 03:02:49;;;;;;;44.47;32.20;;;4.60;99.90;;;;;;5065631;28;20410;-52
2022/03/02 03:05:17;;;;;;;43.30;32.10;;;4.60;99.90;;;;;;5065890;28;20479;-55
2022/03/02 03:07:44;;;;;;;48.58;34.20;;;4.60;99.90;;;;;;5065764;28;20048;-54
2022/03/02 03:10:12;;;;;;;46.72;35.40;;;4.50;99.90;;;;;;5065268;28;20041;-54
2022/03/02 03:12:39;;;;;;;50.67;35.97;;;4.50;99.90;;;;;;5069810;28;20609;-55
2022/03/02 03:15:07;;;;;;;48.90;36.08;;;4.50;99.90;;;;;;5071330;28;20544;-55
2022/03/02 03:17:33;;;;;;;46.90;34.30;;;4.50;99.90;;;;;;5069925;28;20129;-55
2022/03/02 03:19:59;;;;;;;48.08;34.80;;;4.50;99.90;;;;;;5066625;28;20406;-55
2022/03/02 03:22:25;;;;;;;50.58;34.78;;;4.50;99.90;;;;;;5069903;28;20051;-55
2022/03/02 03:24:51;;;;;;;51.47;35.20;;;4.50;99.90;;;;;;5075681;28;20565;-55
2022/03/02 03:27:17;;;;;;;45.90;34.83;;;4.50;99.90;;;;;;5082685;28;20036;-55
2022/03/02 03:29:49;;;;;;;46.55;33.85;;;4.50;99.90;;;;;;5076177;28;20047;-55
2022/03/02 03:32:15;;;;;;;48.45;35.03;;;4.50;99.90;;;;;;5065389;28;20123;-49
2022/03/02 03:34:41;;;;;;;48.03;34.05;;;4.50;99.90;;;;;;5071737;28;20564;-55
2022/03/02 03:37:08;;;;;;;44.47;34.42;;;4.50;99.90;;;;;;5068901;28;20052;-55
2022/03/02 03:39:34;;;;;;;47.60;35.10;;;4.50;99.90;;;;;;5067104;28;20130;-55
2022/03/02 03:41:59;;;;;;;46.92;34.92;;;4.40;99.90;;;;;;5064670;28;20044;-55
2022/03/02 03:44:25;;;;;;;49.70;35.25;;;4.40;99.90;;;;;;5064142;28;20126;-55
2022/03/02 03:46:51;;;;;;;46.03;33.58;;;4.40;99.90;;;;;;5067001;28;20079;-52
2022/03/02 03:49:17;;;;;;;47.90;34.85;;;4.40;99.90;;;;;;5068944;28;20075;-54
2022/03/02 03:51:44;;;;;;;47.10;34.15;;;4.40;99.90;;;;;;5069792;28;20039;-51
2022/03/02 03:54:10;;;;;;;55.22;37.90;;;4.30;99.90;;;;;;5077427;28;20048;-55
2022/03/02 03:56:36;;;;;;;49.63;34.13;;;4.30;99.90;;;;;;5069721;28;20056;-53
2022/03/02 03:59:03;;;;;;;50.05;37.22;;;4.20;99.90;;;;;;5073084;28;20039;-54
2022/03/02 04:01:29;;;;;;;49.85;35.75;;;4.10;99.90;;;;;;5079071;28;20048;-55
2022/03/02 04:03:55;;;;;;;52.88;38.05;;;4.00;99.90;;;;;;5064521;28;20110;-45
2022/03/02 04:06:24;;;;;;;52.00;36.75;;;4.00;99.90;;;;;;5068898;28;20497;-54
2022/03/02 04:08:50;;;;;;;49.35;34.83;;;3.90;99.90;;;;;;5071133;28;20051;-55
2022/03/02 04:11:16;;;;;;;50.95;36.05;;;3.80;99.90;;;;;;5065773;28;20040;-54
2022/03/02 04:13:41;;;;;;;49.42;34.83;;;3.80;99.90;;;;;;5062823;28;20048;-54
2022/03/02 04:16:07;;;;;;;53.13;35.85;;;3.60;99.90;;;;;;5066924;28;20082;-55
2022/03/02 04:18:33;;;;;;;48.65;34.85;;;3.60;99.90;;;;;;5078794;28;20067;-55
2022/03/02 04:21:00;;;;;;;53.50;36.58;;;3.40;99.90;;;;;;5079913;28;20046;-55
2022/03/02 04:23:26;;;;;;;49.72;35.60;;;3.30;99.90;;;;;;5078738;28;20151;-55
2022/03/02 04:25:52;;;;;;;49.88;35.35;;;3.10;99.90;;;;;;5079690;28;20052;-54
2022/03/02 04:28:19;;;;;;;51.53;34.45;;;3.00;99.90;;;;;;5071831;28;20060;-54
2022/03/02 04:30:45;;;;;;;51.25;36.22;;;2.80;99.90;;;;;;5067842;28;20048;-54
2022/03/02 04:33:12;;;;;;;55.80;37.35;;;2.70;99.90;;;;;;5070992;28;20074;-54
2022/03/02 04:35:39;;;;;;;54.97;36.58;;;2.60;99.90;;;;;;5075844;28;20056;-54
2022/03/02 04:38:05;;;;;;;60.80;37.10;;;2.60;99.90;;;;;;5063260;28;20044;-54
2022/03/02 04:40:31;;;;;;;58.28;37.72;;;2.60;99.90;;;;;;5061054;28;20094;-55
2022/03/02 04:42:57;;;;;;;53.88;37.30;;;2.50;99.90;;;;;;5060351;28;20040;-55
2022/03/02 04:45:27;;;;;;;55.65;37.35;;;2.50;99.90;;;;;;5060149;28;20049;-54
2022/03/02 04:47:55;;;;;;;56.92;37.53;;;2.40;99.90;;;;;;5060298;28;20490;-52
2022/03/02 04:50:22;;;;;;;55.20;37.85;;;2.30;99.90;;;;;;5060444;28;20048;-55
2022/03/02 04:52:49;;;;;;;57.30;38.92;;;2.30;99.90;;;;;;5063441;28;20387;-53
2022/03/02 04:55:16;;;;;;;59.63;40.35;;;2.20;99.90;;;;;;5075837;28;20048;-54
2022/03/02 04:57:48;;;;;;;61.33;40.47;;;2.10;99.90;;;;;;5074461;28;20063;-54
2022/03/02 05:00:23;;;;;;;65.70;40.03;;;2.10;99.90;;;;;;5076935;28;20105;-53
2022/03/02 05:02:50;;;;;;;62.95;40.63;;;2.00;99.90;;;;;;5064413;28;20055;-54
2022/03/02 05:05:22;;;;;;;61.00;41.20;;;1.90;99.90;;;;;;5070482;28;20080;-56
2022/03/02 05:07:49;;;;;;;61.22;40.05;;;1.90;99.90;;;;;;5064480;28;20537;-55
2022/03/02 05:10:17;;;;;;;65.88;41.20;;;1.80;99.90;;;;;;5076353;28;20051;-53
2022/03/02 05:12:43;;;;;;;62.90;40.70;;;1.70;99.90;;;;;;5073713;28;20424;-53
2022/03/02 05:15:11;;;;;;;67.03;41.28;;;1.70;99.90;;;;;;5071348;28;20058;-49
2022/03/02 05:17:38;;;;;;;63.42;41.35;;;1.60;99.90;;;;;;5075526;28;20052;-54
2022/03/02 05:20:06;;;;;;;69.72;44.92;;;1.60;99.90;;;;;;5071626;28;20492;-55
2022/03/02 05:22:32;;;;;;;67.03;41.35;;;1.50;99.90;;;;;;5066177;28;20140;-55
2022/03/02 05:24:58;;;;;;;65.53;42.22;;;1.50;99.90;;;;;;5071121;28;20048;-54
2022/03/02 05:27:24;;;;;;;67.05;43.08;;;1.50;99.90;;;;;;5065682;28;20166;-54
2022/03/02 05:29:50;;;;;;;66.65;41.40;;;1.50;99.90;;;;;;5070517;28;20044;-55
2022/03/02 05:32:16;;;;;;;71.05;44.55;;;1.50;99.90;;;;;;5061902;28;20051;-54
2022/03/02 05:34:42;;;;;;;67.05;42.75;;;1.50;99.90;;;;;;5070082;28;20048;-55
2022/03/02 05:37:08;;;;;;;66.00;43.35;;;1.50;99.90;;;;;;5062876;28;20159;-53
2022/03/02 05:39:33;;;;;;;66.72;42.35;;;1.50;99.90;;;;;;5060013;28;20056;-54
2022/03/02 05:41:59;;;;;;;69.63;43.50;;;1.50;99.90;;;;;;5059866;28;20061;-55
2022/03/02 05:44:25;;;;;;;73.43;44.35;;;1.50;99.90;;;;;;5058879;28;20106;-55
2022/03/02 05:46:51;;;;;;;64.43;41.35;;;1.50;99.90;;;;;;5075100;28;20120;-55
2022/03/02 05:49:17;;;;;;;64.43;41.17;;;1.40;99.90;;;;;;5069251;28;20086;-55
2022/03/02 05:51:43;;;;;;;66.72;42.53;;;1.40;99.90;;;;;;5062781;28;20063;-56
2022/03/02 05:54:10;;;;;;;66.53;42.90;;;1.40;99.90;;;;;;5061885;28;20179;-55
2022/03/02 05:56:37;;;;;;;65.97;43.38;;;1.40;99.90;;;;;;5075855;28;20056;-50
2022/03/02 05:59:08;;;;;;;66.05;42.15;;;1.40;99.90;;;;;;5065970;28;20118;-56
2022/03/02 06:01:34;;;;;;;68.80;42.08;;;1.30;99.90;;;;;;5070224;28;20163;-56
2022/03/02 06:04:01;;;;;;;67.80;43.13;;;1.30;99.90;;;;;;5078508;28;20056;-56
2022/03/02 06:06:29;;;;;;;70.53;42.80;;;1.30;99.90;;;;;;5068577;28;20097;-56
2022/03/02 06:08:56;;;;;;;73.97;43.03;;;1.30;99.90;;;;;;5081812;28;20569;-54
2022/03/02 06:11:23;;;;;;;74.60;45.80;;;1.30;99.90;;;;;;5080644;28;20075;-56
2022/03/02 06:13:50;;;;;;;66.40;42.50;;;1.30;99.90;;;;;;5062566;28;20052;-57
2022/03/02 06:16:16;;;;;;;68.75;44.63;;;1.30;99.90;;;;;;5065393;28;20056;-50
2022/03/02 06:18:42;;;;;;;67.60;43.53;;;1.30;99.90;;;;;;5072720;28;20056;-55
2022/03/02 06:21:11;;;;;;;70.72;43.78;;;1.30;99.90;;;;;;5070493;28;20518;-56
2022/03/02 06:23:37;;;;;;;70.65;44.47;;;1.30;99.90;;;;;;5061132;28;20147;-55
2022/03/02 06:26:03;;;;;;;71.65;43.47;;;1.30;99.90;;;;;;5063751;28;20049;-56
2022/03/02 06:28:28;;;;;;;73.20;43.10;;;1.30;99.90;;;;;;5063041;28;20415;-55
2022/03/02 06:30:54;;;;;;;67.03;42.92;;;1.30;99.90;;;;;;5063937;28;20080;-55
2022/03/02 06:33:20;;;;;;;65.53;42.47;;;1.20;99.90;;;;;;5071693;28;20131;-56
2022/03/02 06:35:48;;;;;;;67.10;42.72;;;1.20;99.90;;;;;;5079095;28;20052;-55
2022/03/02 06:38:13;;;;;;;70.13;43.70;;;1.20;99.90;;;;;;5066230;28;20549;-55
2022/03/02 06:40:41;;;;;;;69.22;43.67;;;1.20;99.90;;;;;;5064307;28;20055;-54
2022/03/02 06:43:11;;;;;;;72.40;42.75;;;1.20;99.90;;;;;;5059680;28;20574;-55
2022/03/02 06:45:57;;;;;;;74.57;43.42;;;1.30;99.90;;;;;;5062192;28;20056;-56
2022/03/02 06:48:41;;;;;;;68.93;42.47;;;1.40;99.90;;;;;;5077038;28;20611;-55
2022/03/02 06:51:11;;;;;;;65.50;43.03;;;1.50;99.90;;;;;;5068257;28;20107;-55
2022/03/02 06:53:37;;;;;;;63.63;42.85;;;1.70;99.90;;;;;;5075301;28;20083;-55
2022/03/02 06:56:08;;;;;;;67.97;41.90;;;1.80;99.90;;;;;;5080446;28;20054;-55
2022/03/02 06:58:50;;;;;;;65.20;41.58;;;1.90;99.90;;;;;;5079425;28;20699;-55
2022/03/02 07:01:24;;;;;;;63.20;41.38;;;2.00;99.90;;;;;;5077101;28;20649;-45
2022/03/02 07:03:55;;;;;;;61.25;41.45;;;2.10;99.90;;;;;;5082197;28;20066;-56
2022/03/02 07:06:22;;;;;;;65.22;40.60;;;2.30;99.90;;;;;;5080403;28;20052;-55
2022/03/02 07:08:48;;;;;;;60.28;39.17;;;2.40;99.90;;;;;;5066219;28;20070;-56
2022/03/02 07:11:16;;;;;;;58.30;38.28;;;2.50;99.90;;;;;;5065350;28;20129;-55
2022/03/02 07:13:44;;;;;;;62.88;41.42;;;2.70;99.90;;;;;;5064223;28;20060;-55
2022/03/02 07:16:15;;;;;;;58.22;40.33;;;2.80;99.90;;;;;;5078141;28;20057;-54
2022/03/02 07:18:41;;;;;;;63.58;40.92;;;2.80;99.90;;;;;;5066703;28;20472;-48
2022/03/02 07:21:13;;;;;;;54.40;38.55;;;2.70;99.90;;;;;;5078688;28;20136;-57
2022/03/02 07:23:55;;;;;;;60.45;39.53;;;2.80;99.90;;;;;;5069603;28;20052;-54
2022/03/02 07:26:23;;;;;;;58.92;40.30;;;2.80;99.90;;;;;;5068015;28;20495;-55
2022/03/02 07:28:49;;;;;;;56.13;38.38;;;2.80;99.90;;;;;;5049565;28;20100;-56
2022/03/02 07:31:19;;;;;;;59.97;37.97;;;2.80;99.90;;;;;;5080444;28;20108;-48
2022/03/02 07:33:45;;;;;;;61.67;39.45;;;2.80;99.90;;;;;;5077187;28;20075;-55
2022/03/02 07:36:11;;;;;;;53.42;38.60;;;2.90;99.90;;;;;;5075327;28;20061;-54
2022/03/02 07:38:38;;;;;;;55.67;38.90;;;2.90;99.90;;;;;;5076637;28;20581;-54
2022/03/02 07:41:09;;;;;;;59.00;40.17;;;3.00;99.90;;;;;;5071987;28;20056;-55
2022/03/02 07:43:44;;;;;;;55.45;36.85;;;3.00;99.90;;;;;;5071214;28;20044;-56
2022/03/02 07:46:11;;;;;;;58.30;38.45;;;3.10;99.90;;;;;;5068010;28;20052;-54
2022/03/02 07:48:38;;;;;;;54.33;37.83;;;3.20;99.90;;;;;;5070252;28;20198;-55
2022/03/02 07:51:06;;;;;;;55.55;38.65;;;3.40;99.90;;;;;;5074525;28;20536;-55
2022/03/02 07:53:47;;;;;;;51.35;36.13;;;3.60;99.90;;;;;;5072788;28;20055;-55
2022/03/02 07:56:15;;;;;;;55.50;38.53;;;3.70;99.90;;;;;;5078178;28;20048;-55
2022/03/02 07:58:41;;;;;;;53.88;36.67;;;3.80;99.90;;;;;;5076826;28;20444;-55
2022/03/02 08:01:08;;;;;;;53.95;37.63;;;3.90;99.90;;;;;;5072132;28;20040;-55
2022/03/02 08:03:40;;;;;;;54.30;37.58;;;4.10;99.90;;;;;;5073240;28;20518;-56
2022/03/02 08:06:08;;;;;;;51.15;37.22;;;4.20;99.90;;;;;;5072607;28;20091;-55
2022/03/02 08:08:38;;;;;;;53.00;36.50;;;4.30;99.90;;;;;;5076006;28;20073;-54
2022/03/02 08:11:04;;;;;;;55.08;37.42;;;4.30;99.90;;;;;;5077220;28;20499;-55
2022/03/02 08:13:32;;;;;;;52.42;35.97;;;4.40;99.90;;;;;;5076243;28;20403;-55
2022/03/02 08:16:03;;;;;;;48.63;35.13;;;4.60;99.90;;;;;;5076282;28;20632;-53
2022/03/02 08:18:29;;;;;;;50.63;36.22;;;4.60;99.90;;;;;;5077827;28;20044;-56
2022/03/02 08:21:00;;;;;;;50.90;36.17;;;4.70;99.90;;;;;;5078341;28;20108;-56
2022/03/02 08:23:36;;;;;;;48.08;35.83;;;4.80;99.90;;;;;;5081039;28;20082;-55
2022/03/02 08:26:05;;;;;;;48.97;35.60;;;4.80;99.90;;;;;;5077684;28;20070;-55
2022/03/02 08:28:34;;;;;;;47.20;34.22;;;4.90;99.90;;;;;;5072519;28;20438;-55
2022/03/02 08:31:00;;;;;;;48.28;35.40;;;5.00;99.90;;;;;;5066298;28;20102;-56
2022/03/02 08:33:29;;;;;;;47.30;34.80;;;5.10;99.90;;;;;;5068594;28;20043;-60
2022/03/02 08:35:56;;;;;;;48.58;33.83;;;5.10;99.90;;;;;;5075045;28;20048;-56
2022/03/02 08:38:23;;;;;;;46.88;34.60;;;5.20;99.90;;;;;;5067055;28;20071;-55
2022/03/02 08:40:49;;;;;;;47.20;33.78;;;5.20;99.90;;;;;;5068310;28;20115;-56
2022/03/02 08:43:18;;;;;;;47.03;33.72;;;5.30;99.90;;;;;;5074566;28;20044;-55
2022/03/02 08:45:50;;;;;;;49.85;35.85;;;5.40;99.90;;;;;;5071178;28;20060;-54
2022/03/02 08:48:20;;;;;;;45.25;33.80;;;5.40;99.90;;;;;;5067976;28;20600;-53
2022/03/02 08:50:46;;;;;;;46.53;33.55;;;5.50;99.90;;;;;;5095103;28;20052;-56
2022/03/02 08:53:14;;;;;;;45.00;32.75;;;5.60;99.90;;;;;;5072986;28;20047;-55
2022/03/02 08:55:41;;;;;;;44.72;32.03;;;5.60;99.90;;;;;;5072617;28;20562;-55
2022/03/02 08:58:08;;;;;;;42.85;31.30;;;5.60;99.90;;;;;;5069766;28;20062;-56
2022/03/02 09:00:34;;;;;;;45.22;32.58;;;5.60;99.90;;;;;;5077192;28;20052;-56
2022/03/02 09:03:02;;;;;;;45.65;32.20;;;5.60;99.90;;;;;;5079034;28;20044;-55
2022/03/02 09:05:28;;;;;;;47.42;33.25;;;5.60;99.90;;;;;;5074784;28;20115;-56
2022/03/02 09:07:55;;;;;;;47.53;31.67;;;5.60;99.90;;;;;;5073351;28;20052;-56
2022/03/02 09:10:22;;;;;;;43.95;30.23;;;5.60;99.90;;;;;;5073325;28;20490;-56
2022/03/02 09:12:49;;;;;;;43.90;32.28;;;5.70;99.90;;;;;;5079179;28;20063;-55
2022/03/02 09:15:15;;;;;;;42.08;31.92;;;5.70;99.90;;;;;;5077499;28;20095;-56
2022/03/02 09:17:41;;;;;;;42.63;31.02;;;5.70;99.90;;;;;;5077963;28;20044;-55
2022/03/02 09:20:09;;;;;;;42.95;30.33;;;5.70;99.90;;;;;;5066000;28;20056;-56
2022/03/02 09:22:38;;;;;;;45.20;31.20;;;5.80;99.90;;;;;;5076818;28;20051;-56
2022/03/02 09:25:06;;;;;;;46.33;32.90;;;5.80;99.90;;;;;;5074234;28;20060;-56
2022/03/02 09:27:33;;;;;;;42.08;30.75;;;5.80;99.90;;;;;;5070199;28;20044;-56
2022/03/02 09:30:00;;;;;;;44.67;32.38;;;5.90;99.90;;;;;;5079698;28;20144;-56
2022/03/02 09:32:27;;;;;;;43.30;30.63;;;5.90;99.90;;;;;;5074999;28;20044;-58
2022/03/02 09:34:57;;;;;;;43.30;30.25;;;6.00;99.90;;;;;;5077475;28;20044;-57
2022/03/02 09:37:27;;;;;;;40.28;29.95;;;6.00;99.90;;;;;;5065956;28;20044;-57
2022/03/02 09:39:53;;;;;;;41.72;30.10;;;6.10;99.90;;;;;;5069168;28;20058;-56
2022/03/02 09:42:25;;;;;;;41.08;29.88;;;6.20;99.90;;;;;;5068418;28;20624;-57
2022/03/02 09:45:06;;;;;;;41.60;30.17;;;6.20;99.90;;;;;;5079195;28;20048;-58
2022/03/02 09:47:49;;;;;;;41.53;31.17;;;6.30;99.90;;;;;;5076981;28;20054;-58
2022/03/02 09:50:17;;;;;;;40.47;29.83;;;6.40;99.90;;;;;;5073272;28;20127;-57
2022/03/02 09:52:45;;;;;;;40.80;30.80;;;6.50;99.90;;;;;;5077778;28;20513;-57
2022/03/02 09:55:14;;;;;;;38.60;30.40;;;6.60;99.90;;;;;;5077635;28;20462;-57
2022/03/02 09:57:46;;;;;;;38.45;29.38;;;6.60;99.90;;;;;;5075674;28;20052;-52
2022/03/02 10:00:16;;;;;;;39.42;29.73;;;6.70;99.90;;;;;;5073719;28;20090;-56
2022/03/02 10:02:45;;;;;;;38.42;30.40;;;6.80;99.90;;;;;;5068556;28;20166;-56
2022/03/02 10:05:18;;;;;;;39.88;30.33;;;6.80;99.90;;;;;;5077617;28;20051;-56
2022/03/02 10:08:07;;;;;;;37.85;29.20;;;6.90;99.90;;;;;;5071741;28;20497;-54
2022/03/02 10:10:42;;;;;;;41.03;30.55;;;7.00;99.90;;;;;;5073861;28;20091;-55
2022/03/02 10:13:10;;;;;;;41.60;29.83;;;7.00;99.90;;;;;;5069851;28;20086;-56
2022/03/02 10:15:37;;;;;;;39.38;30.05;;;7.10;99.90;;;;;;5066358;28;20054;-49
2022/03/02 10:18:07;;;;;;;39.95;29.13;;;7.20;99.90;;;;;;5073763;28;20506;-56
2022/03/02 10:20:38;;;;;;;40.10;30.15;;;7.30;99.90;;;;;;5069238;28;20059;-56
2022/03/02 10:23:26;;;;;;;39.50;29.40;;;7.30;99.90;;;;;;5076081;28;20205;-57
2022/03/02 10:26:01;;;;;;;36.00;27.45;;;7.40;99.90;;;;;;5060058;28;20075;-60
2022/03/02 10:28:39;;;;;;;39.28;27.98;;;7.40;99.90;;;;;;5066731;28;20211;-56
2022/03/02 10:31:32;;;;;;;36.95;28.65;;;7.50;99.90;;;;;;5062907;28;20056;-56
2022/03/02 10:34:27;;;;;;;38.75;28.52;;;7.60;99.90;;;;;;5076433;28;20122;-56
2022/03/02 10:37:16;;;;;;;35.95;27.48;;;7.60;99.90;;;;;;5006731;28;20531;-54
2022/03/02 10:40:13;;;;;;;35.50;26.77;;;7.70;99.90;;;;;;5007474;28;20089;-57
2022/03/02 10:43:00;;;;;;;36.28;28.30;;;7.80;99.90;;;;;;5006834;28;20515;-56
2022/03/02 10:45:34;;;;;;;40.33;28.85;;;7.80;99.90;;;;;;5013255;28;20052;-57
2022/03/02 10:48:12;;;;;;;35.75;26.85;;;7.90;99.90;;;;;;5008019;28;20054;-55
2022/03/02 10:50:40;;;;;;;36.15;26.73;;;7.90;99.90;;;;;;4989744;28;20112;-55
2022/03/02 10:53:13;;;;;;;34.58;26.58;;;8.10;99.90;;;;;;5011142;28;20550;-57
2022/03/02 10:55:42;;;;;;;35.53;26.85;;;8.10;99.90;;;;;;5019298;28;20068;-54
2022/03/02 10:58:14;;;;;;;35.63;25.60;;;8.20;99.90;;;;;;5014970;28;20120;-57
2022/03/02 11:00:40;;;;;;;33.08;25.83;;;8.20;99.90;;;;;;5002146;28;20539;-52
2022/03/02 11:03:07;;;;;;;37.00;27.20;;;8.30;99.90;;;;;;5004185;28;20527;-57
2022/03/02 11:05:36;;;;;;;35.78;26.40;;;8.30;99.90;;;;;;5012417;28;20057;-57
2022/03/02 11:08:03;;;;;;;33.17;25.10;;;8.30;99.90;;;;;;4991781;28;20732;-57
2022/03/02 11:10:37;;;;;;;32.80;25.23;;;8.40;99.90;;;;;;5009841;28;20056;-57
2022/03/02 11:13:12;;;;;;;32.60;25.15;;;8.40;99.90;;;;;;5009869;28;20060;-57
2022/03/02 11:15:57;;;;;;;39.78;26.90;;;8.50;99.90;;;;;;5072482;28;20047;-57
2022/03/02 11:18:50;;;;;;;33.20;24.92;;;8.50;99.90;;;;;;5068506;28;20386;-57
2022/03/02 11:21:29;;;;;;;35.58;26.90;;;8.60;99.90;;;;;;5064189;28;20474;-57
2022/03/02 11:23:59;;;;;;;31.60;23.52;;;8.60;99.90;;;;;;5077919;28;20106;-57
2022/03/02 11:26:32;;;;;;;36.33;26.67;;;8.70;99.90;;;;;;5071437;28;20052;-56
2022/03/02 11:29:01;;;;;;;33.60;26.42;;;8.70;99.90;;;;;;5077909;28;20855;-53
2022/03/02 11:31:32;;;;;;;35.33;25.92;;;8.70;99.90;;;;;;5070232;28;20444;-54
2022/03/02 11:34:11;;;;;;;28.90;22.60;;;8.70;99.90;;;;;;5075095;28;20048;-58
2022/03/02 11:36:39;;;;;;;32.13;24.80;;;8.70;99.90;;;;;;5068379;28;20040;-59
2022/03/02 11:39:07;;;;;;;32.88;23.55;;;8.70;99.90;;;;;;5081358;28;20134;-57
2022/03/02 11:41:36;;;;;;;31.98;23.50;;;8.80;99.90;;;;;;5075638;28;20055;-58
2022/03/02 11:44:29;;;;;;;33.60;24.20;;;8.80;99.90;;;;;;5073320;28;20147;-59
2022/03/02 11:46:56;;;;;;;;;;;9.00;99.90;;;;;;5069740;28;20407;-58
2022/03/02 11:49:45;;;;;;;28.42;22.55;;;9.00;99.90;;;;;;5069879;28;20109;-58
2022/03/02 11:52:13;;;;;;;31.05;23.60;;;9.00;99.90;;;;;;5068726;28;20040;-58
2022/03/02 11:54:50;;;;;;;28.63;23.13;;;9.00;99.90;;;;;;5075968;28;20048;-58
2022/03/02 11:57:20;;;;;;;31.20;23.08;;;9.00;99.90;;;;;;5077148;28;20058;-49
2022/03/02 11:59:47;;;;;;;29.88;22.30;;;9.10;99.90;;;;;;5076557;28;20039;-58
2022/03/02 12:02:15;;;;;;;30.50;22.00;;;9.10;99.90;;;;;;5070983;28;20414;-58
2022/03/02 12:04:55;;;;;;;28.98;22.08;;;9.10;99.90;;;;;;5069034;28;20600;-58
2022/03/02 12:07:22;;;;;;;28.02;22.52;;;9.10;99.90;;;;;;5077708;28;20044;-58
2022/03/02 12:09:48;;;;;;;30.38;23.23;;;9.20;99.90;;;;;;5069129;28;20110;-58
2022/03/02 12:12:16;;;;;;;31.30;22.73;;;9.20;99.90;;;;;;5073952;28;20056;-58
2022/03/02 12:14:55;;;;;;;28.38;21.27;;;9.20;99.90;;;;;;5071218;28;20055;-59
2022/03/02 12:17:26;;;;;;;28.05;21.70;;;9.20;99.90;;;;;;5078813;28;20044;-59
2022/03/02 12:19:56;;;;;;;32.95;24.17;;;9.20;99.90;;;;;;5069631;28;20383;-59
2022/03/02 12:22:28;;;;;;;31.88;23.55;;;9.30;99.90;;;;;;5069553;28;20048;-59
2022/03/02 12:24:54;;;;;;;31.52;23.92;;;9.30;99.90;;;;;;5070800;28;20571;-58
2022/03/02 12:27:20;;;;;;;30.92;24.38;;;9.30;99.90;;;;;;5069024;28;20051;-52
2022/03/02 12:29:54;;;;;;;29.48;23.98;;;9.30;99.90;;;;;;5074298;28;20545;-59
2022/03/02 12:32:30;;;;;;;27.63;23.10;;;9.40;99.90;;;;;;5080452;28;20399;-58
2022/03/02 12:34:58;;;;;;;28.33;22.33;;;9.40;99.90;;;;;;5075327;28;20581;-57
2022/03/02 12:37:26;;;;;;;29.05;22.67;;;9.40;99.90;;;;;;5072389;28;20115;-58
2022/03/02 12:39:52;;;;;;;32.08;23.38;;;9.40;99.90;;;;;;5068308;28;20051;-59
2022/03/02 12:42:18;;;;;;;28.20;22.23;;;9.40;99.90;;;;;;5064090;28;20131;-58
2022/03/02 12:44:47;;;;;;;30.02;24.10;;;9.40;99.90;;;;;;5073991;28;20052;-57
2022/03/02 12:47:17;;;;;;;30.58;24.33;;;9.40;99.90;;;;;;5062391;28;20056;-58